createdAt,value
2023-05-16T00:00:07.109Z,25.58
2023-05-16T00:02:34.561Z,21.90
2023-05-16T00:05:01.872Z,22.52
2023-05-16T00:07:29.171Z,23.30
2023-05-16T00:09:56.433Z,19.38
2023-05-16T00:12:24.352Z,17.13
2023-05-16T00:14:52.496Z,17.02
2023-05-16T00:17:20.784Z,25.60
2023-05-16T00:19:58.662Z,23.27
2023-05-16T00:22:25.789Z,22.15
2023-05-16T00:24:53.319Z,20.50
2023-05-16T00:27:21.915Z,23.65
2023-05-16T00:29:49.176Z,22.08
2023-05-16T00:32:17.185Z,27.05
2023-05-16T00:34:44.578Z,18.77
2023-05-16T00:37:11.882Z,18.08
2023-05-16T00:39:39.299Z,23.90
2023-05-16T00:42:07.568Z,22.73
2023-05-16T00:44:34.960Z,19.48
2023-05-16T00:47:03.108Z,21.42
2023-05-16T00:49:30.706Z,19.75
2023-05-16T00:51:59.202Z,27.73
2023-05-16T00:54:29.376Z,19.50
2023-05-16T00:56:56.972Z,16.88
2023-05-16T00:59:25.559Z,18.70
2023-05-16T01:01:53.483Z,22.15
2023-05-16T01:04:21.516Z,24.05
2023-05-16T01:06:49.276Z,20.38
2023-05-16T01:09:17.073Z,19.52
2023-05-16T01:11:51.017Z,19.42
2023-05-16T01:14:34.977Z,24.23
2023-05-16T01:17:20.915Z,18.35
2023-05-16T01:19:56.793Z,18.83
2023-05-16T01:23:03.217Z,18.42
2023-05-16T01:25:37.159Z,21.90
2023-05-16T01:28:05.251Z,20.75
2023-05-16T01:30:41.512Z,23.25
2023-05-16T01:33:10.033Z,17.13
2023-05-16T01:35:54.735Z,18.17
2023-05-16T01:38:27.372Z,26.25
2023-05-16T01:41:25.021Z,20.52
2023-05-16T01:43:59.590Z,18.35
2023-05-16T01:46:30.909Z,18.58
2023-05-16T01:49:20.715Z,19.83
2023-05-16T01:51:54.663Z,20.30
2023-05-16T01:54:25.354Z,21.05
2023-05-16T01:56:54.990Z,23.35
2023-05-16T01:59:24.299Z,22.63
2023-05-16T02:01:55.567Z,22.65
2023-05-16T02:04:24.390Z,20.55
2023-05-16T02:06:52.438Z,23.10
2023-05-16T02:09:19.953Z,17.95
2023-05-16T02:11:47.269Z,21.23
2023-05-16T02:14:14.625Z,27.08
2023-05-16T02:16:41.906Z,18.38
2023-05-16T02:19:09.496Z,21.38
2023-05-16T02:21:37.121Z,20.15
2023-05-16T02:24:05.237Z,18.92
2023-05-16T02:26:32.489Z,19.48
2023-05-16T02:28:59.859Z,16.13
2023-05-16T02:31:32.109Z,18.30
2023-05-16T02:34:00.834Z,19.85
2023-05-16T02:36:28.892Z,16.45
2023-05-16T02:38:56.070Z,18.15
2023-05-16T02:41:23.427Z,19.90
2023-05-16T02:43:50.729Z,25.02
2023-05-16T02:46:26.395Z,18.55
2023-05-16T02:48:54.241Z,28.42
2023-05-16T02:51:23.125Z,26.52
2023-05-16T02:53:50.747Z,25.27
2023-05-16T02:56:18.472Z,19.77
2023-05-16T02:58:48.782Z,24.80
2023-05-16T03:01:16.278Z,20.48
2023-05-16T03:03:43.746Z,19.33
2023-05-16T03:06:11.191Z,19.50
2023-05-16T03:08:38.564Z,21.05
2023-05-16T03:11:06.161Z,25.73
2023-05-16T03:13:33.523Z,15.07
2023-05-16T03:16:01.633Z,14.73
2023-05-16T03:18:28.911Z,16.95
2023-05-16T03:20:56.515Z,21.58
2023-05-16T03:23:24.589Z,17.85
2023-05-16T03:25:52.428Z,17.33
2023-05-16T03:28:19.724Z,19.17
2023-05-16T03:30:46.882Z,17.45
2023-05-16T03:33:14.457Z,18.88
2023-05-16T03:35:41.905Z,20.65
2023-05-16T03:38:09.344Z,17.85
2023-05-16T03:40:36.740Z,20.75
2023-05-16T03:43:04.960Z,15.13
2023-05-16T03:45:32.151Z,17.30
2023-05-16T03:47:59.892Z,20.75
2023-05-16T03:50:27.485Z,24.48
2023-05-16T03:52:54.704Z,17.35
2023-05-16T03:55:22.705Z,18.10
2023-05-16T03:57:51.461Z,20.23
2023-05-16T04:00:18.937Z,26.75
2023-05-16T04:02:46.437Z,19.20
2023-05-16T04:05:14.289Z,17.00
2023-05-16T04:07:41.933Z,13.27
2023-05-16T04:10:10.432Z,13.25
2023-05-16T04:12:37.999Z,15.52
2023-05-16T04:15:06.932Z,14.63
2023-05-16T04:17:35.085Z,10.70
2023-05-16T04:20:03.723Z,18.23
2023-05-16T04:22:31.631Z,19.42
2023-05-16T04:24:59.037Z,17.77
2023-05-16T04:27:27.782Z,17.60
2023-05-16T04:29:55.127Z,15.38
2023-05-16T04:32:24.314Z,18.90
2023-05-16T04:34:53.537Z,23.65
2023-05-16T04:37:21.201Z,17.40
2023-05-16T04:39:48.327Z,16.90
2023-05-16T04:42:15.466Z,13.13
2023-05-16T04:44:42.778Z,18.13
2023-05-16T04:47:10.186Z,17.50
2023-05-16T04:49:51.578Z,16.63
2023-05-16T04:52:19.892Z,15.80
2023-05-16T04:54:47.376Z,18.38
2023-05-16T04:57:14.758Z,15.50
2023-05-16T04:59:42.082Z,12.55
2023-05-16T05:02:09.859Z,11.57
2023-05-16T05:04:37.274Z,13.38
2023-05-16T05:07:04.824Z,15.10
2023-05-16T05:09:31.931Z,19.95
2023-05-16T05:11:59.339Z,17.70
2023-05-16T05:14:26.761Z,11.85
2023-05-16T05:16:58.219Z,16.55
2023-05-16T05:19:25.720Z,15.75
2023-05-16T05:21:53.641Z,14.73
2023-05-16T05:24:21.082Z,17.98
2023-05-16T05:26:48.713Z,11.73
2023-05-16T05:29:16.441Z,12.40
2023-05-16T05:31:44.262Z,19.65
2023-05-16T05:34:11.356Z,11.10
2023-05-16T05:36:38.565Z,17.33
2023-05-16T05:39:05.750Z,12.63
2023-05-16T05:41:33.385Z,16.52
2023-05-16T05:44:01.105Z,15.27
2023-05-16T05:46:28.592Z,14.15
2023-05-16T05:48:56.061Z,14.32
2023-05-16T05:51:25.132Z,14.63
2023-05-16T05:53:53.823Z,17.45
2023-05-16T05:56:21.647Z,12.65
2023-05-16T05:58:49.050Z,9.77
2023-05-16T06:01:17.234Z,13.35
2023-05-16T06:03:44.760Z,11.77
2023-05-16T06:06:14.926Z,14.00
2023-05-16T06:08:42.394Z,15.85
2023-05-16T06:11:10.320Z,18.42
2023-05-16T06:13:37.573Z,17.95
2023-05-16T06:16:07.056Z,14.18
2023-05-16T06:18:38.036Z,10.98
2023-05-16T06:21:08.126Z,11.82
2023-05-16T06:23:36.585Z,39.78
2023-05-16T06:26:04.798Z,16.98
2023-05-16T06:28:34.916Z,16.23
2023-05-16T06:31:02.395Z,16.00
2023-05-16T06:33:29.949Z,13.40
2023-05-16T06:35:57.266Z,19.05
2023-05-16T06:38:25.006Z,11.32
2023-05-16T06:40:52.389Z,16.90
2023-05-16T06:43:19.701Z,9.15
2023-05-16T06:45:47.107Z,10.45
2023-05-16T06:48:18.223Z,13.90
2023-05-16T06:50:52.390Z,9.13
2023-05-16T06:53:21.001Z,15.55
2023-05-16T06:55:48.846Z,10.00
2023-05-16T06:58:16.239Z,13.82
2023-05-16T07:00:44.450Z,13.05
2023-05-16T07:03:11.847Z,15.77
2023-05-16T07:05:42.522Z,10.10
2023-05-16T07:08:11.422Z,13.10
2023-05-16T07:10:41.897Z,10.55
2023-05-16T07:13:09.610Z,10.18
2023-05-16T07:15:37.230Z,10.10
2023-05-16T07:18:05.008Z,8.30
2023-05-16T07:20:32.444Z,14.35
2023-05-16T07:22:59.981Z,9.80
2023-05-16T07:25:27.906Z,10.90
2023-05-16T07:27:56.233Z,11.73
2023-05-16T07:30:23.421Z,10.30
2023-05-16T07:32:50.970Z,9.50
2023-05-16T07:35:18.495Z,12.68
2023-05-16T07:37:49.191Z,12.82
2023-05-16T07:40:18.678Z,7.45
2023-05-16T07:42:49.032Z,8.13
2023-05-16T07:45:16.456Z,11.55
2023-05-16T07:47:44.167Z,11.60
2023-05-16T07:50:12.072Z,13.50
2023-05-16T07:52:39.647Z,11.93
2023-05-16T07:55:07.826Z,11.15
2023-05-16T07:57:35.706Z,14.65
2023-05-16T08:00:04.745Z,14.77
2023-05-16T08:02:32.207Z,8.40
2023-05-16T08:04:59.997Z,12.50
2023-05-16T08:07:27.696Z,11.05
2023-05-16T08:09:55.349Z,9.40
2023-05-16T08:12:22.952Z,11.18
2023-05-16T08:14:50.638Z,8.77
2023-05-16T08:17:18.050Z,9.65
2023-05-16T08:19:45.309Z,7.47
2023-05-16T08:22:12.740Z,10.07
2023-05-16T08:24:39.986Z,7.05
2023-05-16T08:27:07.380Z,8.48
2023-05-16T08:29:34.505Z,11.70
2023-05-16T08:32:02.022Z,6.05
2023-05-16T08:34:32.201Z,6.57
2023-05-16T08:37:23.583Z,9.57
2023-05-16T08:39:51.145Z,10.40
2023-05-16T08:42:27.678Z,7.25
2023-05-16T08:45:00.596Z,9.20
2023-05-16T08:47:32.123Z,12.52
2023-05-16T08:50:01.884Z,9.18
2023-05-16T08:52:31.608Z,9.32
2023-05-16T08:55:10.896Z,10.02
2023-05-16T08:57:39.210Z,10.48
2023-05-16T09:00:15.217Z,7.28
2023-05-16T09:05:13.910Z,8.88
2023-05-16T09:07:42.256Z,8.02
2023-05-16T09:10:10.425Z,7.53
2023-05-16T09:12:38.223Z,11.73
2023-05-16T09:15:10.525Z,6.03
2023-05-16T09:17:42.553Z,10.70
2023-05-16T09:20:17.797Z,9.20
2023-05-16T09:23:05.194Z,5.50
2023-05-16T09:25:32.849Z,8.48
2023-05-16T09:28:04.207Z,7.75
2023-05-16T09:30:34.656Z,9.65
2023-05-16T09:33:02.654Z,8.65
2023-05-16T09:35:44.145Z,6.32
2023-05-16T09:38:17.908Z,9.77
2023-05-16T09:40:46.057Z,3.00
2023-05-16T09:43:17.580Z,10.30
2023-05-16T09:45:49.324Z,7.20
2023-05-16T09:48:17.353Z,7.97
2023-05-16T09:50:53.582Z,8.65
2023-05-16T09:53:28.395Z,9.07
2023-05-16T09:56:07.943Z,8.73
2023-05-16T09:58:37.232Z,6.70
2023-05-16T10:01:05.891Z,6.75
2023-05-16T10:03:39.166Z,8.05
2023-05-16T10:06:08.033Z,4.80
2023-05-16T10:08:37.038Z,5.20
2023-05-16T10:11:06.032Z,9.30
2023-05-16T10:13:35.718Z,8.07
2023-05-16T10:16:11.600Z,8.45
2023-05-16T10:18:41.004Z,8.23
2023-05-16T10:21:17.161Z,8.25
2023-05-16T10:26:17.230Z,7.47
2023-05-16T10:28:45.819Z,8.57
2023-05-16T10:31:17.521Z,8.95
2023-05-16T10:33:46.258Z,9.90
2023-05-16T10:36:15.876Z,9.20
2023-05-16T10:38:47.370Z,6.13
2023-05-16T10:41:18.245Z,3.70
2023-05-16T10:43:56.877Z,7.47
2023-05-16T10:46:25.429Z,6.80
2023-05-16T10:48:54.738Z,11.18
2023-05-16T10:51:41.675Z,8.52
2023-05-16T10:54:12.811Z,11.45
2023-05-16T10:56:40.173Z,8.52
2023-05-16T10:59:27.782Z,9.68
2023-05-16T11:01:57.588Z,6.55
2023-05-16T11:04:48.010Z,4.53
2023-05-16T11:07:17.924Z,8.50
2023-05-16T11:09:46.146Z,6.25
2023-05-16T11:12:18.067Z,5.00
2023-05-16T11:14:52.365Z,7.75
2023-05-16T11:17:24.052Z,8.15
2023-05-16T11:19:59.936Z,6.45
2023-05-16T11:22:32.849Z,9.02
2023-05-16T11:25:06.804Z,7.00
2023-05-16T11:27:36.908Z,7.88
2023-05-16T11:30:18.103Z,8.77
2023-05-16T11:32:47.496Z,6.35
2023-05-16T11:35:17.124Z,6.40
2023-05-16T11:37:45.687Z,6.97
2023-05-16T11:40:14.371Z,7.03
2023-05-16T11:42:49.444Z,7.13
2023-05-16T11:45:26.624Z,6.75
2023-05-16T11:47:54.118Z,7.20
2023-05-16T11:50:23.837Z,9.20
2023-05-16T11:52:57.885Z,6.38
2023-05-16T11:55:41.170Z,7.45
2023-05-16T11:58:09.430Z,4.75
2023-05-16T12:00:37.482Z,6.68
2023-05-16T12:03:06.421Z,5.55
2023-05-16T12:05:35.548Z,6.97
2023-05-16T12:08:05.893Z,10.57
2023-05-16T12:10:36.458Z,7.53
2023-05-16T12:13:04.572Z,10.10
2023-05-16T12:15:32.433Z,7.78
2023-05-16T12:18:00.082Z,10.20
2023-05-16T12:20:27.735Z,6.45
2023-05-16T12:23:00.951Z,7.57
2023-05-16T12:25:32.909Z,8.27
2023-05-16T12:30:35.930Z,6.88
2023-05-16T12:33:10.420Z,10.02
2023-05-16T12:35:43.231Z,8.65
2023-05-16T12:38:12.715Z,7.43
2023-05-16T12:40:44.175Z,7.88
2023-05-16T12:43:29.821Z,10.00
2023-05-16T12:45:58.732Z,13.02
2023-05-16T12:48:48.125Z,6.85
2023-05-16T12:51:18.089Z,10.25
2023-05-16T12:53:57.751Z,16.33
2023-05-16T12:56:28.924Z,5.93
2023-05-16T12:58:56.167Z,9.20
2023-05-16T13:01:23.181Z,9.13
2023-05-16T13:03:50.426Z,8.18
2023-05-16T13:06:17.804Z,8.43
2023-05-16T13:08:45.040Z,7.15
2023-05-16T13:11:12.437Z,8.15
2023-05-16T13:13:39.749Z,6.05
2023-05-16T13:16:07.150Z,6.95
2023-05-16T13:18:34.792Z,12.52
2023-05-16T13:21:02.163Z,15.32
2023-05-16T13:23:29.546Z,6.10
2023-05-16T13:25:57.014Z,13.70
2023-05-16T13:28:24.308Z,9.55
2023-05-16T13:30:51.769Z,9.25
2023-05-16T13:33:19.029Z,5.95
2023-05-16T13:35:46.244Z,6.88
2023-05-16T13:38:13.285Z,9.20
2023-05-16T13:40:43.147Z,8.02
2023-05-16T13:43:10.198Z,6.95
2023-05-16T13:45:40.942Z,9.10
2023-05-16T13:48:08.269Z,5.78
2023-05-16T13:50:36.108Z,5.07
2023-05-16T13:53:04.399Z,7.13
2023-05-16T13:55:31.718Z,5.22
2023-05-16T13:57:58.906Z,8.40
2023-05-16T14:00:43.365Z,5.78
2023-05-16T14:03:12.125Z,7.72
2023-05-16T14:05:39.733Z,4.22
2023-05-16T14:08:09.900Z,5.53
2023-05-16T14:10:37.072Z,6.65
2023-05-16T14:13:07.694Z,5.15
2023-05-16T14:15:34.746Z,7.32
2023-05-16T14:18:02.870Z,3.67
2023-05-16T14:20:29.976Z,4.93
2023-05-16T14:22:57.237Z,4.25
2023-05-16T14:25:24.561Z,5.65
2023-05-16T14:27:51.726Z,4.90
2023-05-16T14:30:19.368Z,5.80
2023-05-16T14:32:46.568Z,6.10
2023-05-16T14:35:13.932Z,6.93
2023-05-16T14:37:41.384Z,4.13
2023-05-16T14:40:09.576Z,10.75
2023-05-16T14:42:36.897Z,8.00
2023-05-16T14:45:04.401Z,10.25
2023-05-16T14:47:31.947Z,6.85
2023-05-16T14:49:59.579Z,4.78
2023-05-16T14:52:26.809Z,6.60
2023-05-16T14:54:53.997Z,8.07
2023-05-16T14:57:24.843Z,6.18
2023-05-16T14:59:52.088Z,11.27
2023-05-16T15:02:19.674Z,9.77
2023-05-16T15:04:46.929Z,7.18
2023-05-16T15:07:14.114Z,7.35
2023-05-16T15:09:43.971Z,9.20
2023-05-16T15:12:11.133Z,3.58
2023-05-16T15:14:38.330Z,7.10
2023-05-16T15:17:08.775Z,8.15
2023-05-16T15:19:36.362Z,5.97
2023-05-16T15:22:03.583Z,5.57
2023-05-16T15:24:34.172Z,3.60
2023-05-16T15:27:01.986Z,2.65
2023-05-16T15:32:34.015Z,3.35
2023-05-16T15:35:01.210Z,5.78
2023-05-16T15:37:29.000Z,13.00
2023-05-16T15:40:01.823Z,5.40
2023-05-16T15:42:28.988Z,6.55
2023-05-16T15:44:57.617Z,5.15
2023-05-16T15:47:24.715Z,5.10
2023-05-16T15:49:51.938Z,5.85
2023-05-16T15:52:21.059Z,5.30
2023-05-16T15:54:51.977Z,6.45
2023-05-16T15:57:19.335Z,6.68
2023-05-16T15:59:46.647Z,6.75
2023-05-16T16:02:13.914Z,6.43
2023-05-16T16:04:41.391Z,7.63
2023-05-16T16:07:08.942Z,4.18
2023-05-16T16:09:36.189Z,5.88
2023-05-16T16:12:03.445Z,6.55
2023-05-16T16:14:30.699Z,6.10
2023-05-16T16:16:57.931Z,5.85
2023-05-16T16:19:26.694Z,4.88
2023-05-16T16:21:54.116Z,4.88
2023-05-16T16:24:21.686Z,6.00
2023-05-16T16:26:49.029Z,8.50
2023-05-16T16:29:16.712Z,5.90
2023-05-16T16:31:44.161Z,5.70
2023-05-16T16:34:11.759Z,3.22
2023-05-16T16:36:38.953Z,6.13
2023-05-16T16:39:05.920Z,5.70
2023-05-16T16:41:32.953Z,4.97
2023-05-16T16:44:00.053Z,5.65
2023-05-16T16:46:27.227Z,7.25
2023-05-16T16:48:54.871Z,4.18
2023-05-16T16:51:22.297Z,5.00
2023-05-16T16:53:49.452Z,4.65
2023-05-16T16:56:16.614Z,5.55
2023-05-16T16:58:43.695Z,7.72
2023-05-16T17:01:12.761Z,5.22
2023-05-16T17:03:40.114Z,6.30
2023-05-16T17:06:07.463Z,5.68
2023-05-16T17:08:34.522Z,4.38
2023-05-16T17:11:05.319Z,4.93
2023-05-16T17:13:34.100Z,5.45
2023-05-16T17:16:04.854Z,3.75
2023-05-16T17:18:34.622Z,4.35
2023-05-16T17:21:02.105Z,7.07
2023-05-16T17:23:29.374Z,7.53
2023-05-16T17:25:57.086Z,8.77
2023-05-16T17:28:25.057Z,6.30
2023-05-16T17:30:52.608Z,7.45
2023-05-16T17:33:20.296Z,4.60
2023-05-16T17:35:47.676Z,4.80
2023-05-16T17:38:15.213Z,6.65
2023-05-16T17:40:42.408Z,9.18
2023-05-16T17:43:09.668Z,6.10
2023-05-16T17:45:36.751Z,8.63
2023-05-16T17:48:04.425Z,7.20
2023-05-16T17:50:32.947Z,6.35
2023-05-16T17:53:00.126Z,4.38
2023-05-16T17:55:27.957Z,7.93
2023-05-16T17:57:55.416Z,9.00
2023-05-16T18:00:24.282Z,10.13
2023-05-16T18:02:52.421Z,6.65
2023-05-16T18:05:19.949Z,10.13
2023-05-16T18:07:47.533Z,8.32
2023-05-16T18:10:14.886Z,9.93
2023-05-16T18:12:42.868Z,8.27
2023-05-16T18:15:10.874Z,11.15
2023-05-16T18:17:38.125Z,11.65
2023-05-16T18:20:10.868Z,14.07
2023-05-16T18:22:39.060Z,13.55
2023-05-16T18:25:07.803Z,12.80
2023-05-16T18:27:34.843Z,10.70
2023-05-16T18:30:02.878Z,13.88
2023-05-16T18:32:30.472Z,9.00
2023-05-16T18:34:57.703Z,12.00
2023-05-16T18:37:24.933Z,12.38
2023-05-16T18:39:52.439Z,10.20
2023-05-16T18:42:19.631Z,12.18
2023-05-16T18:44:46.940Z,12.75
2023-05-16T18:47:15.912Z,11.73
2023-05-16T18:49:43.595Z,14.68
2023-05-16T18:52:11.607Z,11.68
2023-05-16T18:54:39.242Z,10.95
2023-05-16T18:57:07.899Z,12.73
2023-05-16T18:59:35.131Z,13.98
2023-05-16T19:02:02.588Z,11.90
2023-05-16T19:04:29.991Z,11.82
2023-05-16T19:06:58.188Z,15.35
2023-05-16T19:09:26.617Z,13.80
2023-05-16T19:11:53.634Z,11.18
2023-05-16T19:14:21.771Z,14.23
2023-05-16T19:16:49.118Z,9.40
2023-05-16T19:19:16.613Z,9.45
2023-05-16T19:21:44.052Z,12.55
2023-05-16T19:24:12.261Z,10.50
2023-05-16T19:26:40.281Z,12.10
2023-05-16T19:29:07.709Z,15.93
2023-05-16T19:31:35.019Z,12.50
2023-05-16T19:34:02.383Z,12.13
2023-05-16T19:36:32.358Z,13.20
2023-05-16T19:38:59.877Z,12.65
2023-05-16T19:41:27.924Z,10.90
2023-05-16T19:43:55.855Z,10.25
2023-05-16T19:46:26.228Z,12.55
2023-05-16T19:48:53.810Z,10.20
2023-05-16T19:51:37.178Z,9.82
2023-05-16T19:54:07.504Z,13.18
2023-05-16T19:56:34.806Z,11.40
2023-05-16T19:59:02.023Z,13.77
2023-05-16T20:01:29.175Z,14.43
2023-05-16T20:03:56.311Z,14.90
2023-05-16T20:06:23.421Z,11.30
2023-05-16T20:08:50.647Z,12.90
2023-05-16T20:11:17.974Z,14.65
2023-05-16T20:13:45.304Z,11.40
2023-05-16T20:16:13.012Z,11.45
2023-05-16T20:18:40.223Z,7.03
2023-05-16T20:21:07.497Z,12.30
2023-05-16T20:23:36.242Z,11.52
2023-05-16T20:26:03.333Z,10.90
2023-05-16T20:28:31.502Z,13.20
2023-05-16T20:30:58.621Z,10.85
2023-05-16T20:33:26.106Z,11.02
2023-05-16T20:35:55.967Z,16.25
2023-05-16T20:38:23.294Z,10.52
2023-05-16T20:40:50.652Z,11.82
2023-05-16T20:43:17.771Z,9.00
2023-05-16T20:45:44.847Z,14.70
2023-05-16T20:48:14.304Z,13.07
2023-05-16T20:50:41.832Z,15.13
2023-05-16T20:53:09.053Z,12.48
2023-05-16T20:55:36.303Z,17.95
2023-05-16T20:58:03.683Z,12.10
2023-05-16T21:00:30.820Z,14.88
2023-05-16T21:02:58.085Z,13.10
2023-05-16T21:05:26.254Z,15.93
2023-05-16T21:07:53.762Z,12.38
2023-05-16T21:10:21.078Z,14.52
2023-05-16T21:12:48.492Z,17.42
2023-05-16T21:15:15.979Z,19.58
2023-05-16T21:17:43.833Z,14.43
2023-05-16T21:20:11.498Z,17.40
2023-05-16T21:22:38.623Z,17.45
2023-05-16T21:25:06.333Z,11.52
2023-05-16T21:27:33.663Z,13.23
2023-05-16T21:30:00.983Z,11.98
2023-05-16T21:32:32.393Z,11.57
2023-05-16T21:35:06.087Z,15.70
2023-05-16T21:37:33.777Z,10.77
2023-05-16T21:40:00.873Z,16.88
2023-05-16T21:42:28.044Z,10.30
2023-05-16T21:44:55.173Z,17.33
2023-05-16T21:47:22.793Z,13.95
2023-05-16T21:49:51.261Z,14.38
2023-05-16T21:52:18.712Z,17.38
2023-05-16T21:54:51.539Z,16.52
2023-05-16T21:57:19.826Z,15.90
2023-05-16T21:59:50.443Z,17.63
2023-05-16T22:02:22.983Z,17.58
2023-05-16T22:04:51.500Z,13.88
2023-05-16T22:07:20.099Z,15.05
2023-05-16T22:09:50.986Z,18.98
2023-05-16T22:12:18.505Z,16.10
2023-05-16T22:14:45.808Z,18.25
2023-05-16T22:17:13.462Z,13.57
2023-05-16T22:19:42.353Z,13.85
2023-05-16T22:22:10.659Z,13.77
2023-05-16T22:24:37.833Z,14.77
2023-05-16T22:27:05.298Z,18.10
2023-05-16T22:29:38.050Z,19.25
2023-05-16T22:32:09.711Z,18.48
2023-05-16T22:34:40.388Z,17.45
2023-05-16T22:37:11.388Z,18.50
2023-05-16T22:39:38.591Z,17.75
2023-05-16T22:42:06.689Z,17.05
2023-05-16T22:44:34.285Z,15.73
2023-05-16T22:47:01.293Z,20.20
2023-05-16T22:49:28.526Z,13.75
2023-05-16T22:51:55.713Z,18.63
2023-05-16T22:54:22.743Z,18.02
2023-05-16T22:56:49.801Z,20.33
2023-05-16T22:59:17.031Z,19.80
2023-05-16T23:01:44.275Z,19.65
2023-05-16T23:04:12.352Z,16.58
2023-05-16T23:06:39.355Z,12.55
2023-05-16T23:09:06.583Z,22.30
2023-05-16T23:11:33.751Z,20.30
2023-05-16T23:14:01.465Z,12.45
2023-05-16T23:16:29.036Z,19.90
2023-05-16T23:18:56.444Z,19.45
2023-05-16T23:21:23.705Z,21.92
2023-05-16T23:23:50.869Z,17.83
2023-05-16T23:26:18.227Z,22.63
2023-05-16T23:28:45.587Z,20.02
2023-05-16T23:31:12.996Z,27.95
2023-05-16T23:33:40.379Z,16.55
2023-05-16T23:36:07.794Z,18.27
2023-05-16T23:38:35.055Z,21.70
2023-05-16T23:41:02.400Z,22.00
2023-05-16T23:43:29.438Z,24.33
2023-05-16T23:45:56.594Z,15.90
2023-05-16T23:48:24.130Z,16.10
2023-05-16T23:50:51.695Z,20.85
2023-05-16T23:53:18.910Z,19.55
2023-05-16T23:55:49.350Z,18.10
2023-05-16T23:58:16.803Z,17.52
